Time;durP1;ratioP1;P1;durP2;ratioP2;P2;SDS_P1;SDS_P2;PMS_P1;PMS_P2;Temp;Humidity;BMP_temperature;BMP_pressure;BME280_temperature;BME280_humidity;BME280_pressure;Samples;Min_cycle;Max_cycle;Signal;HPM_P1;HPM_P2
2023/10/23 00:01:40;;;;;;;54.22;18.75;;;;;;;;;;5050030;28;20741;-72
2023/10/23 00:04:06;;;;;;;47.25;17.73;;;;;;;;;;5046786;28;20100;-76
2023/10/23 00:06:32;;;;;;;50.58;16.77;;;;;;;;;;5036090;28;20048;-73
2023/10/23 00:08:58;;;;;;;48.75;17.40;;;;;;;;;;5033114;28;20553;-72
2023/10/23 00:11:28;;;;;;;41.00;15.45;;;;;;;;;;5034407;28;20034;-72
2023/10/23 00:13:55;;;;;;;38.38;14.95;;;;;;;;;;5047872;28;20084;-73
2023/10/23 00:16:21;;;;;;;41.88;14.70;;;;;;;;;;5041890;28;20129;-76
2023/10/23 00:18:48;;;;;;;32.90;13.90;;;;;;;;;;5029990;28;21273;-73
2023/10/23 00:21:14;;;;;;;33.55;13.27;;;;;;;;;;5039249;28;20034;-72
2023/10/23 00:23:41;;;;;;;25.58;11.35;;;;;;;;;;5042305;28;20054;-72
2023/10/23 00:26:07;;;;;;;27.52;11.40;;;;;;;;;;5044176;28;20474;-73
2023/10/23 00:28:34;;;;;;;23.77;11.50;;;;;;;;;;5033644;28;20048;-72
2023/10/23 00:31:00;;;;;;;20.45;10.48;;;;;;;;;;5045888;28;20037;-72
2023/10/23 00:33:26;;;;;;;19.40;10.60;;;;;;;;;;5032035;28;20090;-73
2023/10/23 00:35:52;;;;;;;20.58;9.75;;;;;;;;;;5046949;28;20479;-72
2023/10/23 00:38:18;;;;;;;29.88;12.85;;;;;;;;;;5036331;28;20037;-73
2023/10/23 00:40:44;;;;;;;28.52;11.98;;;;;;;;;;5037066;28;20431;-73
2023/10/23 00:43:11;;;;;;;22.00;10.18;;;;;;;;;;5047929;28;20810;-73
2023/10/23 00:45:38;;;;;;;20.13;10.00;;;;;;;;;;5047387;28;20039;-74
2023/10/23 00:48:04;;;;;;;18.70;8.55;;;;;;;;;;5034309;28;20394;-73
2023/10/23 00:50:30;;;;;;;14.23;7.80;;;;;;;;;;5044703;28;20049;-73
2023/10/23 00:52:56;;;;;;;19.15;9.70;;;;;;;;;;5046412;28;20036;-73
2023/10/23 00:55:22;;;;;;;17.58;7.70;;;;;;;;;;5047596;28;20387;-73
2023/10/23 00:57:48;;;;;;;12.80;9.45;;;;;;;;;;5035219;28;20107;-76
2023/10/23 01:00:14;;;;;;;10.35;7.00;;;;;;;;;;5045471;28;20041;-74
2023/10/23 01:02:40;;;;;;;14.52;6.45;;;;;;;;;;5041715;28;20436;-75
2023/10/23 01:05:07;;;;;;;12.32;6.95;;;;;;;;;;5035861;28;20866;-73
2023/10/23 01:07:33;;;;;;;10.40;6.47;;;;;;;;;;5037047;28;20044;-73
2023/10/23 01:09:59;;;;;;;11.27;6.38;;;;;;;;;;5044711;28;20573;-73
2023/10/23 01:12:25;;;;;;;10.20;6.25;;;;;;;;;;5043961;28;20037;-72
2023/10/23 01:14:51;;;;;;;12.02;6.32;;;;;;;;;;5051098;28;20111;-73
2023/10/23 01:17:17;;;;;;;10.00;6.20;;;;;;;;;;5047148;28;20052;-74
2023/10/23 01:19:43;;;;;;;9.52;5.68;;;;;;;;;;5042557;28;20144;-73
2023/10/23 01:22:09;;;;;;;14.55;5.80;;;;;;;;;;5035143;28;20449;-73
2023/10/23 01:24:36;;;;;;;12.30;5.88;;;;;;;;;;5047597;28;20033;-73
2023/10/23 01:27:02;;;;;;;10.57;5.70;;;;;;;;;;5047099;28;20101;-73
2023/10/23 01:29:28;;;;;;;7.68;5.65;;;;;;;;;;5041649;28;20060;-73
2023/10/23 01:31:54;;;;;;;7.97;5.72;;;;;;;;;;5046530;28;20029;-74
2023/10/23 01:34:20;;;;;;;11.07;6.13;;;;;;;;;;5035563;28;20086;-74
2023/10/23 01:36:46;;;;;;;17.15;7.13;;;;;;;;;;5044294;28;20108;-74
2023/10/23 01:39:12;;;;;;;10.93;6.70;;;;;;;;;;5042490;28;20048;-73
2023/10/23 01:41:38;;;;;;;9.15;6.30;;;;;;;;;;5047723;28;20044;-73
2023/10/23 01:44:04;;;;;;;11.55;6.38;;;;;;;;;;5029702;28;20041;-75
2023/10/23 01:46:30;;;;;;;9.00;6.28;;;;;;;;;;5041983;28;20072;-73
2023/10/23 01:48:56;;;;;;;9.77;6.07;;;;;;;;;;5044757;28;20040;-74
2023/10/23 01:51:22;;;;;;;8.55;5.22;;;;;;;;;;5027877;28;20026;-73
2023/10/23 01:53:48;;;;;;;8.20;5.97;;;;;;;;;;5029436;28;20021;-74
2023/10/23 01:56:14;;;;;;;11.30;5.85;;;;;;;;;;5050588;28;20055;-73
2023/10/23 01:58:40;;;;;;;10.10;5.45;;;;;;;;;;5018605;28;20057;-73
2023/10/23 02:01:06;;;;;;;7.05;5.53;;;;;;;;;;5048276;28;20041;-74
2023/10/23 02:03:32;;;;;;;13.85;6.13;;;;;;;;;;5042208;28;20041;-73
2023/10/23 02:05:58;;;;;;;10.45;6.85;;;;;;;;;;5037833;28;20137;-73
2023/10/23 02:08:24;;;;;;;9.00;6.55;;;;;;;;;;5039481;28;20037;-73
2023/10/23 02:10:51;;;;;;;10.02;6.28;;;;;;;;;;5050180;28;20029;-76
2023/10/23 02:13:17;;;;;;;11.07;6.63;;;;;;;;;;5046626;28;20048;-73
2023/10/23 02:15:43;;;;;;;12.52;6.25;;;;;;;;;;5048467;28;20114;-73
2023/10/23 02:18:09;;;;;;;10.32;6.30;;;;;;;;;;5039189;28;20069;-74
2023/10/23 02:20:35;;;;;;;10.52;6.40;;;;;;;;;;5041548;28;20487;-74
2023/10/23 02:23:01;;;;;;;9.93;6.40;;;;;;;;;;5041306;28;20037;-73
2023/10/23 02:25:27;;;;;;;8.10;6.35;;;;;;;;;;5033267;28;20041;-72
2023/10/23 02:27:53;;;;;;;13.98;6.00;;;;;;;;;;5050232;28;20079;-76
2023/10/23 02:30:19;;;;;;;11.75;6.47;;;;;;;;;;5044735;28;20037;-72
2023/10/23 02:32:45;;;;;;;10.85;7.55;;;;;;;;;;5045133;28;20075;-74
2023/10/23 02:35:11;;;;;;;12.43;6.50;;;;;;;;;;5043989;28;20056;-73
2023/10/23 02:37:37;;;;;;;11.68;6.60;;;;;;;;;;5050658;28;20422;-73
2023/10/23 02:40:03;;;;;;;12.07;7.85;;;;;;;;;;5034098;28;20048;-73
2023/10/23 02:42:29;;;;;;;9.68;6.85;;;;;;;;;;5044762;28;20033;-72
2023/10/23 02:44:55;;;;;;;9.57;6.78;;;;;;;;;;5050101;28;20403;-73
2023/10/23 02:47:21;;;;;;;8.20;6.57;;;;;;;;;;5049316;28;20033;-73
2023/10/23 02:49:47;;;;;;;11.75;7.35;;;;;;;;;;5048409;28;20083;-72
2023/10/23 02:52:15;;;;;;;9.15;7.07;;;;;;;;;;5053604;28;20025;-73
2023/10/23 02:54:41;;;;;;;11.07;7.25;;;;;;;;;;5044980;28;20041;-73
2023/10/23 02:57:07;;;;;;;78.55;39.88;;;;;;;;;;5050242;28;20047;-72
2023/10/23 02:59:33;;;;;;;12.18;7.85;;;;;;;;;;5044006;28;20175;-72
2023/10/23 03:01:59;;;;;;;12.52;7.82;;;;;;;;;;5035056;28;20471;-73
2023/10/23 03:04:25;;;;;;;12.20;7.65;;;;;;;;;;5045728;28;20045;-74
2023/10/23 03:06:51;;;;;;;13.25;8.25;;;;;;;;;;5049129;28;20466;-77
2023/10/23 03:09:17;;;;;;;12.32;7.78;;;;;;;;;;5050707;28;20056;-73
2023/10/23 03:11:43;;;;;;;8.57;6.80;;;;;;;;;;5051920;28;20087;-74
2023/10/23 03:14:10;;;;;;;17.05;8.18;;;;;;;;;;5049975;28;20429;-75
2023/10/23 03:16:36;;;;;;;15.13;6.75;;;;;;;;;;5046266;28;20074;-74
2023/10/23 03:19:02;;;;;;;12.18;7.75;;;;;;;;;;5049165;28;20029;-74
2023/10/23 03:21:29;;;;;;;13.20;7.93;;;;;;;;;;5044071;28;20373;-73
2023/10/23 03:23:55;;;;;;;11.88;7.82;;;;;;;;;;5042002;28;20033;-73
2023/10/23 03:26:21;;;;;;;10.80;7.85;;;;;;;;;;5040182;28;20503;-73
2023/10/23 03:28:47;;;;;;;14.02;8.27;;;;;;;;;;5048056;28;20084;-73
2023/10/23 03:31:14;;;;;;;11.52;8.15;;;;;;;;;;5043814;28;20061;-74
2023/10/23 03:33:41;;;;;;;14.35;9.25;;;;;;;;;;5017899;28;20033;-75
2023/10/23 03:36:07;;;;;;;12.25;8.95;;;;;;;;;;5037393;28;20040;-74
2023/10/23 03:38:33;;;;;;;14.05;10.60;;;;;;;;;;5049116;28;20032;-74
2023/10/23 03:41:00;;;;;;;13.98;10.15;;;;;;;;;;5040782;28;20036;-73
2023/10/23 03:43:26;;;;;;;19.35;11.02;;;;;;;;;;5035915;28;20029;-73
2023/10/23 03:45:52;;;;;;;13.32;10.50;;;;;;;;;;5043000;28;20468;-74
2023/10/23 03:48:18;;;;;;;16.17;11.98;;;;;;;;;;5048635;28;20037;-75
2023/10/23 03:50:44;;;;;;;17.92;11.27;;;;;;;;;;5050939;28;20056;-77
2023/10/23 03:53:10;;;;;;;16.50;9.80;;;;;;;;;;5052210;28;20029;-74
2023/10/23 03:55:37;;;;;;;18.25;10.43;;;;;;;;;;5040111;28;20467;-73
2023/10/23 03:58:03;;;;;;;13.10;9.90;;;;;;;;;;5038164;28;20045;-74
2023/10/23 04:00:29;;;;;;;12.85;10.30;;;;;;;;;;5036077;28;20483;-74
2023/10/23 04:02:55;;;;;;;15.02;10.35;;;;;;;;;;5041212;28;20033;-74
2023/10/23 04:05:21;;;;;;;15.48;9.63;;;;;;;;;;5049312;28;20044;-73
2023/10/23 04:07:47;;;;;;;18.02;11.13;;;;;;;;;;5034787;28;20041;-74
2023/10/23 04:10:13;;;;;;;18.77;11.98;;;;;;;;;;5032571;28;20494;-73
2023/10/23 04:12:40;;;;;;;14.45;10.85;;;;;;;;;;5042870;28;20036;-74
2023/10/23 04:15:06;;;;;;;18.02;10.35;;;;;;;;;;5049696;28;20036;-75
2023/10/23 04:17:32;;;;;;;20.70;12.43;;;;;;;;;;5037911;28;20057;-75
2023/10/23 04:19:58;;;;;;;18.70;11.73;;;;;;;;;;5036483;28;20130;-73
2023/10/23 04:22:25;;;;;;;15.00;12.05;;;;;;;;;;5034856;28;20487;-73
2023/10/23 04:24:53;;;;;;;25.13;13.63;;;;;;;;;;5035613;28;20061;-74
2023/10/23 04:27:20;;;;;;;18.83;13.45;;;;;;;;;;5032911;28;20064;-74
2023/10/23 04:29:46;;;;;;;17.65;12.07;;;;;;;;;;5032191;28;20061;-73
2023/10/23 04:32:12;;;;;;;17.10;11.95;;;;;;;;;;5042756;28;20057;-73
2023/10/23 04:34:38;;;;;;;14.85;11.38;;;;;;;;;;5039000;28;20037;-74
2023/10/23 04:37:04;;;;;;;17.23;11.82;;;;;;;;;;5040504;28;20037;-73
2023/10/23 04:39:30;;;;;;;14.43;12.07;;;;;;;;;;5031669;28;20566;-72
2023/10/23 04:41:56;;;;;;;19.00;11.55;;;;;;;;;;5042010;28;20451;-73
2023/10/23 04:44:22;;;;;;;14.18;10.70;;;;;;;;;;5037948;28;20099;-73
2023/10/23 04:46:48;;;;;;;18.05;10.20;;;;;;;;;;5050189;28;20470;-75
2023/10/23 04:49:14;;;;;;;17.45;10.73;;;;;;;;;;5031109;28;20045;-73
2023/10/23 04:51:40;;;;;;;12.90;9.73;;;;;;;;;;5042873;28;20059;-74
2023/10/23 04:54:06;;;;;;;14.55;9.63;;;;;;;;;;5049661;28;20025;-75
2023/10/23 04:56:32;;;;;;;11.98;9.73;;;;;;;;;;5036337;28;20780;-73
2023/10/23 04:58:58;;;;;;;17.40;9.85;;;;;;;;;;5036294;28;20045;-73
2023/10/23 05:01:24;;;;;;;14.98;9.82;;;;;;;;;;5033829;28;20044;-73
2023/10/23 05:03:50;;;;;;;13.13;9.20;;;;;;;;;;5031338;28;20515;-74
2023/10/23 05:06:16;;;;;;;12.10;9.18;;;;;;;;;;5044390;28;20037;-73
2023/10/23 05:08:43;;;;;;;20.92;10.13;;;;;;;;;;5046412;28;20104;-74
2023/10/23 05:11:10;;;;;;;15.00;9.55;;;;;;;;;;5033444;28;20099;-75
2023/10/23 05:13:36;;;;;;;17.98;9.43;;;;;;;;;;5033965;28;20064;-75
2023/10/23 05:16:04;;;;;;;17.85;10.15;;;;;;;;;;5039052;28;20037;-73
2023/10/23 05:18:30;;;;;;;13.55;9.85;;;;;;;;;;5019895;28;20033;-76
2023/10/23 05:20:56;;;;;;;16.35;10.18;;;;;;;;;;5042322;28;20505;-73
2023/10/23 05:23:22;;;;;;;12.82;9.13;;;;;;;;;;5016198;28;20037;-74
2023/10/23 05:25:48;;;;;;;11.32;9.02;;;;;;;;;;5032533;28;20040;-73
2023/10/23 05:28:14;;;;;;;15.10;9.55;;;;;;;;;;5041675;28;20446;-73
2023/10/23 05:30:40;;;;;;;14.70;10.05;;;;;;;;;;5045567;28;20041;-74
2023/10/23 05:33:06;;;;;;;13.50;9.52;;;;;;;;;;5048038;28;20541;-74
2023/10/23 05:35:32;;;;;;;14.10;10.15;;;;;;;;;;5035530;28;20057;-73
2023/10/23 05:37:58;;;;;;;15.07;10.25;;;;;;;;;;5045678;28;20079;-73
2023/10/23 05:40:24;;;;;;;16.33;9.82;;;;;;;;;;5047999;28;20098;-73
2023/10/23 05:42:50;;;;;;;14.90;10.82;;;;;;;;;;5046225;28;20028;-74
2023/10/23 05:45:16;;;;;;;17.50;9.80;;;;;;;;;;5034358;28;20038;-74
2023/10/23 05:47:42;;;;;;;14.77;10.93;;;;;;;;;;5037562;28;20029;-74
2023/10/23 05:50:08;;;;;;;22.08;13.98;;;;;;;;;;5035229;28;21679;-74
2023/10/23 05:52:34;;;;;;;18.40;12.15;;;;;;;;;;5048997;28;20490;-76
2023/10/23 05:55:04;;;;;;;17.50;13.63;;;;;;;;;;5046238;28;20033;-74
2023/10/23 05:57:30;;;;;;;19.65;15.15;;;;;;;;;;5033054;28;20053;-74
2023/10/23 05:59:56;;;;;;;27.58;17.58;;;;;;;;;;5049293;28;20119;-74
2023/10/23 06:02:22;;;;;;;24.08;15.85;;;;;;;;;;5029011;28;20076;-74
2023/10/23 06:04:48;;;;;;;19.98;14.77;;;;;;;;;;5039631;28;20112;-75
2023/10/23 06:07:14;;;;;;;19.02;14.43;;;;;;;;;;5045780;28;20175;-74
2023/10/23 06:09:40;;;;;;;18.08;14.00;;;;;;;;;;5046720;28;20044;-74
2023/10/23 06:12:06;;;;;;;14.88;12.38;;;;;;;;;;5033030;28;20107;-74
2023/10/23 06:14:32;;;;;;;17.90;11.55;;;;;;;;;;5036062;28;20037;-74
2023/10/23 06:16:59;;;;;;;25.05;12.52;;;;;;;;;;5043791;28;20079;-74
2023/10/23 06:19:25;;;;;;;17.58;12.13;;;;;;;;;;5030394;28;20041;-74
2023/10/23 06:21:52;;;;;;;13.48;11.57;;;;;;;;;;5034149;28;20032;-74
2023/10/23 06:24:18;;;;;;;17.52;11.88;;;;;;;;;;5033429;28;20104;-75
2023/10/23 06:26:44;;;;;;;14.20;11.18;;;;;;;;;;5036588;28;20030;-74
2023/10/23 06:29:10;;;;;;;18.13;12.95;;;;;;;;;;5054267;28;20040;-75
2023/10/23 06:31:36;;;;;;;23.75;16.25;;;;;;;;;;5042939;28;20037;-74
2023/10/23 06:34:02;;;;;;;28.52;18.05;;;;;;;;;;5053862;28;20029;-74
2023/10/23 06:36:30;;;;;;;21.30;13.73;;;;;;;;;;5043579;28;20560;-74
2023/10/23 06:38:57;;;;;;;16.35;13.13;;;;;;;;;;5041213;28;20402;-74
2023/10/23 06:41:23;;;;;;;21.30;12.45;;;;;;;;;;5045529;28;20544;-75
2023/10/23 06:43:49;;;;;;;19.70;11.70;;;;;;;;;;5031778;28;20033;-76
2023/10/23 06:46:15;;;;;;;19.50;13.07;;;;;;;;;;5051094;28;20039;-75
2023/10/23 06:48:44;;;;;;;20.35;11.43;;;;;;;;;;5044160;28;20052;-74
2023/10/23 06:51:15;;;;;;;15.25;11.25;;;;;;;;;;5051386;28;20037;-75
2023/10/23 06:53:41;;;;;;;16.20;10.73;;;;;;;;;;5044218;28;20063;-75
2023/10/23 06:56:09;;;;;;;17.95;11.70;;;;;;;;;;5034711;28;20041;-75
2023/10/23 06:58:35;;;;;;;14.90;11.50;;;;;;;;;;5037840;28;20063;-75
2023/10/23 07:01:08;;;;;;;20.13;12.70;;;;;;;;;;5049936;28;20886;-75
2023/10/23 07:03:34;;;;;;;16.58;11.27;;;;;;;;;;5046258;28;20483;-73
2023/10/23 07:06:04;;;;;;;14.30;10.93;;;;;;;;;;5036616;28;20521;-75
2023/10/23 07:08:30;;;;;;;17.67;11.23;;;;;;;;;;5039400;28;20041;-73
2023/10/23 07:10:56;;;;;;;18.63;10.98;;;;;;;;;;5035811;28;20033;-73
2023/10/23 07:13:22;;;;;;;14.88;11.35;;;;;;;;;;5040482;28;20183;-74
2023/10/23 07:15:48;;;;;;;17.27;12.40;;;;;;;;;;5044224;28;20032;-74
2023/10/23 07:18:14;;;;;;;34.92;19.90;;;;;;;;;;5030772;28;20375;-74
2023/10/23 07:20:40;;;;;;;23.60;15.88;;;;;;;;;;5050073;28;20052;-75
2023/10/23 07:23:06;;;;;;;22.52;14.65;;;;;;;;;;5048424;28;20120;-74
2023/10/23 07:25:32;;;;;;;16.95;13.38;;;;;;;;;;5047614;28;20033;-76
2023/10/23 07:27:59;;;;;;;17.38;12.65;;;;;;;;;;5039759;28;20029;-73
2023/10/23 07:30:25;;;;;;;18.15;12.73;;;;;;;;;;5032163;28;20033;-73
2023/10/23 07:32:51;;;;;;;16.92;13.45;;;;;;;;;;5051223;28;20036;-73
2023/10/23 07:35:17;;;;;;;18.45;13.18;;;;;;;;;;5042873;28;20038;-75
2023/10/23 07:37:43;;;;;;;23.15;16.23;;;;;;;;;;5031294;28;20399;-73
2023/10/23 07:40:09;;;;;;;25.25;16.92;;;;;;;;;;5044290;28;20045;-73
2023/10/23 07:42:35;;;;;;;20.65;13.88;;;;;;;;;;5043014;28;20091;-73
2023/10/23 07:45:03;;;;;;;27.10;17.35;;;;;;;;;;5043882;28;20037;-73
2023/10/23 07:47:29;;;;;;;18.65;13.48;;;;;;;;;;5052566;28;20025;-72
2023/10/23 07:49:55;;;;;;;18.40;13.02;;;;;;;;;;5052283;28;20036;-71
2023/10/23 07:52:22;;;;;;;16.65;13.40;;;;;;;;;;5040250;28;20464;-74
2023/10/23 07:54:48;;;;;;;21.75;12.98;;;;;;;;;;5052573;28;20083;-73
2023/10/23 07:57:14;;;;;;;18.73;13.02;;;;;;;;;;5044987;28;20028;-74
2023/10/23 07:59:40;;;;;;;18.30;13.15;;;;;;;;;;5047546;28;20035;-79
2023/10/23 08:02:06;;;;;;;17.95;14.13;;;;;;;;;;5052353;28;20108;-74
2023/10/23 08:04:33;;;;;;;16.55;12.65;;;;;;;;;;5050270;28;20123;-73
2023/10/23 08:06:59;;;;;;;18.80;13.48;;;;;;;;;;5051659;28;20059;-72
2023/10/23 08:09:25;;;;;;;22.98;15.75;;;;;;;;;;5033017;28;20039;-77
2023/10/23 08:11:53;;;;;;;27.52;16.00;;;;;;;;;;5047405;28;20036;-75
2023/10/23 08:14:19;;;;;;;21.05;13.65;;;;;;;;;;5044028;28;20045;-74
2023/10/23 08:16:45;;;;;;;56.38;35.28;;;;;;;;;;5045671;28;20040;-72
2023/10/23 08:19:12;;;;;;;40.60;25.83;;;;;;;;;;5033619;28;20043;-74
2023/10/23 08:21:38;;;;;;;92.15;58.72;;;;;;;;;;5048856;28;20037;-73
2023/10/23 08:24:05;;;;;;;19.85;15.18;;;;;;;;;;5051635;28;20021;-75
2023/10/23 08:26:31;;;;;;;20.70;14.95;;;;;;;;;;5050375;28;20041;-76
2023/10/23 08:28:57;;;;;;;19.88;12.75;;;;;;;;;;5052359;28;20044;-73
2023/10/23 08:31:23;;;;;;;20.95;15.00;;;;;;;;;;5044130;28;20036;-73
2023/10/23 08:33:49;;;;;;;17.08;13.40;;;;;;;;;;5052232;28;20040;-73
2023/10/23 08:36:15;;;;;;;20.55;13.57;;;;;;;;;;5038204;28;20398;-73
2023/10/23 08:38:41;;;;;;;16.30;11.93;;;;;;;;;;5042706;28;20059;-75
2023/10/23 08:41:10;;;;;;;19.77;14.93;;;;;;;;;;5051709;28;20073;-76
2023/10/23 08:43:36;;;;;;;21.98;16.65;;;;;;;;;;5050732;28;20025;-76
2023/10/23 08:46:02;;;;;;;90.57;58.33;;;;;;;;;;5051922;28;20044;-73
2023/10/23 08:48:28;;;;;;;137.02;84.25;;;;;;;;;;5050206;28;20025;-72
2023/10/23 08:50:58;;;;;;;43.90;29.48;;;;;;;;;;5014843;28;20064;-75
2023/10/23 08:53:33;;;;;;;40.00;27.52;;;;;;;;;;5034535;28;20029;-73
2023/10/23 08:56:04;;;;;;;16.05;10.20;;;;;;;;;;5047001;28;20114;-74
2023/10/23 08:58:31;;;;;;;12.73;8.77;;;;;;;;;;5050644;28;20052;-75
2023/10/23 09:00:57;;;;;;;15.38;8.85;;;;;;;;;;5041581;28;20037;-73
2023/10/23 09:03:26;;;;;;;11.65;8.60;;;;;;;;;;5043656;28;20047;-76
2023/10/23 09:05:52;;;;;;;10.70;8.48;;;;;;;;;;5043916;28;20044;-73
2023/10/23 09:08:18;;;;;;;10.57;7.85;;;;;;;;;;5048944;28;20041;-75
2023/10/23 09:11:03;;;;;;;9.55;7.63;;;;;;;;;;5042212;28;20041;-73
2023/10/23 09:13:37;;;;;;;8.55;6.78;;;;;;;;;;5043053;28;20112;-73
2023/10/23 09:16:05;;;;;;;10.50;6.70;;;;;;;;;;5041267;28;20044;-80
2023/10/23 09:18:31;;;;;;;14.88;6.78;;;;;;;;;;5041478;28;20034;-76
2023/10/23 09:20:57;;;;;;;11.55;6.72;;;;;;;;;;5032995;28;20052;-73
2023/10/23 09:23:23;;;;;;;7.15;5.25;;;;;;;;;;5024551;28;20379;-74
2023/10/23 09:25:49;;;;;;;11.15;6.35;;;;;;;;;;5038821;28;20033;-73
2023/10/23 09:28:15;;;;;;;8.05;5.18;;;;;;;;;;5035572;28;20033;-75
2023/10/23 09:30:42;;;;;;;115.07;78.35;;;;;;;;;;5045611;28;20044;-77
2023/10/23 09:33:11;;;;;;;99.13;67.65;;;;;;;;;;5022473;28;20099;-75
2023/10/23 09:35:37;;;;;;;15.10;10.75;;;;;;;;;;5049450;28;20025;-73
2023/10/23 09:38:12;;;;;;;14.57;10.25;;;;;;;;;;5049248;28;20490;-75
2023/10/23 09:40:38;;;;;;;10.23;5.30;;;;;;;;;;5034382;28;20479;-78
2023/10/23 09:43:06;;;;;;;5.03;4.00;;;;;;;;;;5036241;28;20045;-78
2023/10/23 09:45:33;;;;;;;5.82;4.10;;;;;;;;;;5040996;28;20029;-78
2023/10/23 09:48:00;;;;;;;7.80;4.53;;;;;;;;;;5033831;28;20061;-75
2023/10/23 09:50:27;;;;;;;5.90;3.60;;;;;;;;;;5031870;28;20445;-76
2023/10/23 09:52:56;;;;;;;7.53;3.70;;;;;;;;;;5053910;28;20029;-76
2023/10/23 09:55:24;;;;;;;5.25;2.90;;;;;;;;;;5047580;28;20099;-78
2023/10/23 09:57:53;;;;;;;5.95;2.42;;;;;;;;;;5055054;28;20095;-79
2023/10/23 10:00:19;;;;;;;5.88;2.67;;;;;;;;;;5042784;28;20047;-79
2023/10/23 10:02:48;;;;;;;5.55;2.60;;;;;;;;;;5042185;28;20061;-81
2023/10/23 10:05:18;;;;;;;4.00;2.17;;;;;;;;;;5044768;28;20086;-77
2023/10/23 10:08:02;;;;;;;5.53;2.60;;;;;;;;;;5051203;28;20029;-76
2023/10/23 10:10:29;;;;;;;3.97;2.60;;;;;;;;;;5051473;28;20489;-74
2023/10/23 10:12:56;;;;;;;6.90;2.20;;;;;;;;;;5050430;28;20055;-76
2023/10/23 10:15:23;;;;;;;4.15;2.17;;;;;;;;;;5043276;28;20106;-76
2023/10/23 10:17:49;;;;;;;3.88;2.15;;;;;;;;;;5040373;28;20025;-78
2023/10/23 10:20:19;;;;;;;9.32;5.07;;;;;;;;;;5047153;28;20035;-78
2023/10/23 10:22:46;;;;;;;47.17;32.10;;;;;;;;;;5040126;28;20482;-78
2023/10/23 10:25:13;;;;;;;10.15;6.80;;;;;;;;;;5035822;28;20041;-76
2023/10/23 10:27:39;;;;;;;4.72;2.65;;;;;;;;;;5036683;28;20079;-80
2023/10/23 10:30:05;;;;;;;3.80;2.05;;;;;;;;;;5038302;28;20041;-78
2023/10/23 10:32:33;;;;;;;2.63;1.40;;;;;;;;;;5044165;28;20086;-77
2023/10/23 10:35:07;;;;;;;4.57;2.20;;;;;;;;;;5048049;28;20572;-74
2023/10/23 10:37:33;;;;;;;4.78;2.20;;;;;;;;;;5045483;28;20022;-71
2023/10/23 10:39:59;;;;;;;2.85;1.70;;;;;;;;;;5042766;28;20033;-78
2023/10/23 10:42:29;;;;;;;5.68;2.08;;;;;;;;;;5033907;28;20060;-77
2023/10/23 10:44:56;;;;;;;5.30;2.25;;;;;;;;;;5024094;28;20410;-80
2023/10/23 10:47:37;;;;;;;3.10;1.42;;;;;;;;;;5029646;28;20446;-74
2023/10/23 10:50:04;;;;;;;3.20;1.58;;;;;;;;;;5048750;28;20032;-77
2023/10/23 10:52:33;;;;;;;3.28;2.28;;;;;;;;;;5046913;28;20056;-75
2023/10/23 10:55:04;;;;;;;4.53;1.80;;;;;;;;;;5047028;28;20114;-73
2023/10/23 10:57:30;;;;;;;2.35;1.60;;;;;;;;;;5046191;28;20053;-75
2023/10/23 10:59:57;;;;;;;3.35;1.70;;;;;;;;;;5038977;28;20061;-75
2023/10/23 11:02:23;;;;;;;3.05;1.80;;;;;;;;;;5051515;28;20111;-76
2023/10/23 11:04:50;;;;;;;6.78;2.70;;;;;;;;;;5045240;28;20029;-78
2023/10/23 11:07:20;;;;;;;4.57;1.80;;;;;;;;;;5045367;28;20032;-79
2023/10/23 11:09:47;;;;;;;8.82;3.40;;;;;;;;;;5041937;28;20032;-77
2023/10/23 11:12:13;;;;;;;3.40;2.33;;;;;;;;;;5049464;28;20091;-76
2023/10/23 11:14:39;;;;;;;11.85;3.90;;;;;;;;;;5052324;28;20051;-76
2023/10/23 11:17:05;;;;;;;5.68;3.30;;;;;;;;;;5052384;28;20044;-76
2023/10/23 11:19:31;;;;;;;6.18;2.30;;;;;;;;;;5048625;28;20047;-77
2023/10/23 11:22:13;;;;;;;7.93;4.50;;;;;;;;;;5030357;28;20094;-76
2023/10/23 11:24:40;;;;;;;6.25;2.55;;;;;;;;;;5039736;28;20494;-77
2023/10/23 11:27:06;;;;;;;8.57;3.55;;;;;;;;;;5047381;28;20025;-77
2023/10/23 11:29:45;;;;;;;4.13;2.13;;;;;;;;;;5043307;28;20498;-77
2023/10/23 11:32:12;;;;;;;2.90;1.60;;;;;;;;;;5045350;28;20037;-78
2023/10/23 11:34:38;;;;;;;5.22;2.00;;;;;;;;;;5048972;28;20033;-75
2023/10/23 11:37:05;;;;;;;4.57;2.50;;;;;;;;;;5047797;28;20124;-77
2023/10/23 11:39:31;;;;;;;5.57;2.38;;;;;;;;;;5047594;28;20102;-76
2023/10/23 11:41:58;;;;;;;13.80;3.55;;;;;;;;;;5048717;28;20036;-76
2023/10/23 11:44:25;;;;;;;5.38;3.05;;;;;;;;;;5041390;28;20036;-79
2023/10/23 11:46:52;;;;;;;5.38;2.20;;;;;;;;;;5046410;28;20430;-77
2023/10/23 11:49:19;;;;;;;3.58;2.45;;;;;;;;;;5037070;28;20067;-77
2023/10/23 11:51:45;;;;;;;6.10;2.83;;;;;;;;;;5049166;28;20372;-76
2023/10/23 11:54:11;;;;;;;4.22;2.28;;;;;;;;;;5051075;28;20383;-76
2023/10/23 11:56:37;;;;;;;4.45;1.85;;;;;;;;;;5015856;28;20132;-76
2023/10/23 11:59:04;;;;;;;8.18;3.10;;;;;;;;;;5047917;28;20049;-76
2023/10/23 12:01:30;;;;;;;4.10;2.75;;;;;;;;;;5029782;28;20087;-76
2023/10/23 12:03:56;;;;;;;14.90;7.28;;;;;;;;;;5044157;28;20108;-74
2023/10/23 12:06:22;;;;;;;16.60;8.00;;;;;;;;;;5048640;28;20112;-74
2023/10/23 12:08:48;;;;;;;6.45;3.22;;;;;;;;;;5035385;28;20113;-78
2023/10/23 12:11:14;;;;;;;3.90;2.17;;;;;;;;;;5039783;28;20044;-76
2023/10/23 12:13:41;;;;;;;4.75;3.10;;;;;;;;;;5041540;28;20039;-78
2023/10/23 12:16:09;;;;;;;5.97;3.47;;;;;;;;;;5036024;28;20060;-78
2023/10/23 12:18:35;;;;;;;5.63;4.53;;;;;;;;;;5038637;28;20030;-78
2023/10/23 12:21:05;;;;;;;8.52;3.92;;;;;;;;;;5032079;28;20487;-78
2023/10/23 12:23:31;;;;;;;9.10;4.22;;;;;;;;;;5040262;28;20116;-77
2023/10/23 12:25:57;;;;;;;5.40;3.72;;;;;;;;;;5048586;28;20457;-83
2023/10/23 12:28:23;;;;;;;5.05;3.85;;;;;;;;;;5043104;28;20348;-72
2023/10/23 12:30:49;;;;;;;8.77;4.10;;;;;;;;;;5043790;28;20044;-73
2023/10/23 12:33:15;;;;;;;5.05;4.13;;;;;;;;;;5041298;28;20041;-75
2023/10/23 12:35:41;;;;;;;6.25;4.18;;;;;;;;;;5048332;28;20033;-74
2023/10/23 12:38:07;;;;;;;5.45;4.15;;;;;;;;;;5043049;28;20487;-75
2023/10/23 12:40:33;;;;;;;4.40;4.00;;;;;;;;;;5042700;28;20459;-75
2023/10/23 12:42:59;;;;;;;5.20;4.10;;;;;;;;;;5051269;28;20471;-76
2023/10/23 12:45:26;;;;;;;9.52;3.70;;;;;;;;;;5047418;28;20040;-75
2023/10/23 12:47:52;;;;;;;15.13;7.80;;;;;;;;;;5033656;28;20079;-74
2023/10/23 12:50:17;;;;;;;7.50;5.10;;;;;;;;;;5035601;28;20033;-75
2023/10/23 12:52:44;;;;;;;7.68;5.72;;;;;;;;;;5048759;28;20467;-76
2023/10/23 12:55:10;;;;;;;4.63;3.60;;;;;;;;;;5049491;28;20368;-81
2023/10/23 12:57:36;;;;;;;4.75;3.80;;;;;;;;;;5033928;28;20083;-77
2023/10/23 13:00:02;;;;;;;14.40;3.88;;;;;;;;;;5031536;28;20091;-80
2023/10/23 13:02:28;;;;;;;15.30;3.75;;;;;;;;;;5045686;28;20033;-81
2023/10/23 13:04:54;;;;;;;8.50;3.85;;;;;;;;;;5043695;28;20034;-83
2023/10/23 13:07:20;;;;;;;13.05;3.78;;;;;;;;;;5034228;28;20446;-86
2023/10/23 13:09:46;;;;;;;10.85;6.78;;;;;;;;;;5043748;28;20449;-81
2023/10/23 13:12:12;;;;;;;12.48;5.93;;;;;;;;;;5049200;28;20553;-81
2023/10/23 13:14:38;;;;;;;17.20;7.90;;;;;;;;;;5043396;28;20124;-79
2023/10/23 13:17:04;;;;;;;6.55;4.88;;;;;;;;;;5040914;28;20591;-78
2023/10/23 13:19:30;;;;;;;5.15;4.05;;;;;;;;;;5040027;28;20044;-80
2023/10/23 13:21:56;;;;;;;7.70;5.45;;;;;;;;;;5035451;28;20037;-83
2023/10/23 13:24:22;;;;;;;9.40;5.40;;;;;;;;;;5042772;28;20040;-81
2023/10/23 13:26:48;;;;;;;9.73;7.63;;;;;;;;;;5045859;28;20037;-76
2023/10/23 13:29:14;;;;;;;9.82;6.93;;;;;;;;;;5049063;28;20029;-78
2023/10/23 13:31:40;;;;;;;7.63;6.43;;;;;;;;;;5049164;28;20044;-73
2023/10/23 13:34:06;;;;;;;9.70;6.75;;;;;;;;;;5038760;28;20427;-78
2023/10/23 13:36:32;;;;;;;7.85;7.03;;;;;;;;;;5046545;28;20037;-76
2023/10/23 13:39:03;;;;;;;8.23;7.43;;;;;;;;;;5045315;28;20029;-78
2023/10/23 13:41:29;;;;;;;10.55;7.30;;;;;;;;;;5045732;28;20033;-76
2023/10/23 13:43:55;;;;;;;9.85;7.30;;;;;;;;;;5030756;28;20506;-73
2023/10/23 13:46:21;;;;;;;7.65;6.63;;;;;;;;;;5042278;28;20037;-79
2023/10/23 13:48:47;;;;;;;8.15;6.72;;;;;;;;;;5032222;28;20039;-72
2023/10/23 13:51:13;;;;;;;9.90;6.90;;;;;;;;;;5049665;28;20110;-73
2023/10/23 13:53:39;;;;;;;9.20;7.00;;;;;;;;;;5028418;28;20033;-73
2023/10/23 13:56:06;;;;;;;8.88;7.57;;;;;;;;;;5034368;28;20100;-74
2023/10/23 13:58:32;;;;;;;8.85;7.32;;;;;;;;;;5044342;28;20067;-74
2023/10/23 14:00:58;;;;;;;9.80;8.25;;;;;;;;;;5024828;28;20177;-73
2023/10/23 14:03:25;;;;;;;8.70;7.80;;;;;;;;;;5034175;28;20494;-73
2023/10/23 14:05:51;;;;;;;11.65;8.32;;;;;;;;;;5046274;28;20037;-73
2023/10/23 14:08:17;;;;;;;11.02;8.70;;;;;;;;;;5049172;28;20031;-74
2023/10/23 14:10:43;;;;;;;11.98;9.75;;;;;;;;;;5044805;28;20069;-73
2023/10/23 14:13:09;;;;;;;11.52;9.93;;;;;;;;;;5040436;28;20042;-76
2023/10/23 14:15:35;;;;;;;11.90;9.13;;;;;;;;;;5044777;28;20031;-77
2023/10/23 14:18:02;;;;;;;10.82;9.38;;;;;;;;;;5030066;28;20107;-76
2023/10/23 14:20:28;;;;;;;11.80;9.63;;;;;;;;;;5034381;28;20041;-75
2023/10/23 14:22:54;;;;;;;13.45;10.32;;;;;;;;;;5036624;28;20030;-76
2023/10/23 14:25:20;;;;;;;12.65;9.35;;;;;;;;;;5048269;28;20051;-77